createdAt,value
2022-07-27T00:01:17.786Z,74.68
2022-07-27T00:03:57.738Z,74.21
2022-07-27T00:06:26.408Z,74.00
2022-07-27T00:08:56.005Z,72.98
2022-07-27T00:11:24.255Z,72.98
2022-07-27T00:13:52.967Z,72.69
2022-07-27T00:16:21.280Z,72.70
2022-07-27T00:18:49.621Z,74.06
2022-07-27T00:21:17.902Z,74.56
2022-07-27T00:23:46.138Z,75.48
2022-07-27T00:26:15.960Z,76.12
2022-07-27T00:28:44.453Z,76.71
2022-07-27T00:31:12.762Z,76.76
2022-07-27T00:33:41.165Z,76.83
2022-07-27T00:36:10.196Z,76.80
2022-07-27T00:38:38.857Z,74.75
2022-07-27T00:41:07.731Z,74.01
2022-07-27T00:46:30.203Z,74.55
2022-07-27T00:48:58.577Z,74.90
2022-07-27T00:51:27.144Z,74.34
2022-07-27T00:53:57.106Z,75.01
2022-07-27T00:56:25.915Z,75.19
2022-07-27T00:58:54.871Z,74.96
2022-07-27T01:01:23.123Z,75.25
2022-07-27T01:03:53.256Z,74.81
2022-07-27T01:06:26.785Z,74.33
2022-07-27T01:09:18.009Z,74.62
2022-07-27T01:11:46.866Z,75.03
2022-07-27T01:14:18.064Z,75.39
2022-07-27T01:16:46.547Z,75.32
2022-07-27T01:19:16.915Z,75.13
2022-07-27T01:21:46.642Z,75.14
2022-07-27T01:24:15.455Z,75.79
2022-07-27T01:26:44.690Z,75.73
2022-07-27T01:29:13.286Z,76.32
2022-07-27T01:31:41.969Z,76.77
2022-07-27T01:34:10.364Z,77.51
2022-07-27T01:36:39.918Z,77.64
2022-07-27T01:39:09.745Z,77.66
2022-07-27T01:41:38.262Z,77.15
2022-07-27T01:44:06.898Z,77.70
2022-07-27T01:46:35.247Z,78.28
2022-07-27T01:49:04.040Z,77.95
2022-07-27T01:51:32.444Z,77.68
2022-07-27T01:54:01.025Z,77.63
2022-07-27T01:56:30.637Z,78.39
2022-07-27T01:59:00.096Z,76.87
2022-07-27T02:01:53.835Z,77.61
2022-07-27T02:04:23.374Z,77.75
2022-07-27T02:06:51.688Z,76.76
2022-07-27T02:09:20.912Z,77.47
2022-07-27T02:12:08.201Z,78.29
2022-07-27T02:14:36.439Z,78.40
2022-07-27T02:17:04.654Z,79.06
2022-07-27T02:19:33.295Z,79.69
2022-07-27T02:22:01.496Z,79.78
2022-07-27T02:24:29.796Z,80.35
2022-07-27T02:26:59.977Z,79.22
2022-07-27T02:29:28.241Z,81.10
2022-07-27T02:31:56.532Z,80.07
2022-07-27T02:34:24.834Z,79.37
2022-07-27T02:36:53.062Z,79.25
2022-07-27T02:39:21.272Z,78.90
2022-07-27T02:41:49.485Z,79.44
2022-07-27T02:44:20.390Z,78.59
2022-07-27T02:46:49.406Z,79.76
2022-07-27T02:49:17.620Z,79.97
2022-07-27T02:51:50.439Z,79.24
2022-07-27T02:54:19.083Z,79.57
2022-07-27T02:56:47.302Z,79.64
2022-07-27T02:59:15.661Z,79.08
2022-07-27T03:01:45.436Z,79.60
2022-07-27T03:04:14.053Z,79.28
2022-07-27T03:06:42.840Z,79.71
2022-07-27T03:09:12.196Z,79.28
2022-07-27T03:11:40.790Z,79.90
2022-07-27T03:14:09.014Z,79.04
2022-07-27T03:16:37.241Z,79.59
2022-07-27T03:19:06.835Z,79.84
2022-07-27T03:21:35.043Z,79.83
2022-07-27T03:24:03.336Z,79.50
2022-07-27T03:26:33.300Z,80.81
2022-07-27T03:29:01.537Z,81.26
2022-07-27T03:31:29.889Z,81.81
2022-07-27T03:33:58.245Z,81.57
2022-07-27T03:36:27.833Z,81.82
2022-07-27T03:39:02.951Z,81.13
2022-07-27T03:41:33.990Z,81.18
2022-07-27T03:44:04.888Z,81.07
2022-07-27T03:46:34.112Z,80.97
2022-07-27T03:49:02.512Z,82.46
2022-07-27T03:51:44.147Z,82.88
2022-07-27T03:54:12.547Z,83.76
2022-07-27T03:56:40.871Z,83.58
2022-07-27T03:59:09.353Z,83.19
2022-07-27T04:01:38.125Z,83.10
2022-07-27T04:04:06.494Z,83.55
2022-07-27T04:06:34.806Z,82.99
2022-07-27T04:09:07.830Z,83.40
2022-07-27T04:11:43.362Z,84.42
2022-07-27T04:14:19.395Z,84.89
2022-07-27T04:16:48.001Z,85.44
2022-07-27T04:19:16.516Z,85.96
2022-07-27T04:21:44.905Z,85.54
2022-07-27T04:24:14.529Z,85.70
2022-07-27T04:26:42.782Z,85.14
2022-07-27T04:29:11.290Z,85.93
2022-07-27T04:31:39.753Z,86.06
2022-07-27T04:34:08.049Z,86.31
2022-07-27T04:36:38.557Z,86.06
2022-07-27T04:39:07.288Z,86.06
2022-07-27T04:41:36.935Z,86.65
2022-07-27T04:44:05.858Z,86.54
2022-07-27T04:46:34.079Z,87.37
2022-07-27T04:49:03.953Z,88.85
2022-07-27T04:51:34.662Z,87.89
2022-07-27T04:54:03.481Z,88.27
2022-07-27T04:56:31.700Z,87.22
2022-07-27T04:59:01.302Z,87.77
2022-07-27T05:01:34.997Z,87.95
2022-07-27T05:04:04.614Z,87.70
2022-07-27T05:06:33.088Z,87.49
2022-07-27T05:09:01.310Z,87.54
2022-07-27T05:11:29.586Z,88.28
2022-07-27T05:13:57.838Z,88.07
2022-07-27T05:16:29.073Z,87.64
2022-07-27T05:18:57.813Z,87.62
2022-07-27T05:21:27.199Z,87.32
2022-07-27T05:23:55.699Z,86.45
2022-07-27T05:26:24.072Z,86.56
2022-07-27T05:28:52.320Z,85.76
2022-07-27T05:31:20.581Z,86.06
2022-07-27T05:33:54.641Z,86.04
2022-07-27T05:36:26.077Z,85.79
2022-07-27T05:38:54.297Z,85.89
2022-07-27T05:41:24.861Z,86.03
2022-07-27T05:43:54.384Z,85.58
2022-07-27T05:46:23.158Z,85.35
2022-07-27T05:48:53.071Z,84.92
2022-07-27T05:51:21.385Z,85.07
2022-07-27T05:53:49.648Z,84.54
2022-07-27T05:56:17.850Z,84.27
2022-07-27T05:58:45.998Z,83.53
2022-07-27T06:01:15.580Z,83.58
2022-07-27T06:03:44.430Z,82.86
2022-07-27T06:06:33.497Z,81.93
2022-07-27T06:09:03.785Z,82.88
2022-07-27T06:11:31.866Z,82.75
2022-07-27T06:13:59.955Z,83.16
2022-07-27T06:16:28.489Z,82.47
2022-07-27T06:18:56.557Z,81.31
2022-07-27T06:21:28.073Z,80.99
2022-07-27T06:23:56.314Z,81.24
2022-07-27T06:26:24.795Z,81.33
2022-07-27T06:28:58.652Z,81.66
2022-07-27T06:31:27.619Z,81.37
2022-07-27T06:33:58.394Z,81.26
2022-07-27T06:36:31.644Z,80.29
2022-07-27T06:38:59.840Z,80.07
2022-07-27T06:41:28.700Z,80.29
2022-07-27T06:43:56.888Z,80.56
2022-07-27T06:46:25.160Z,80.68
2022-07-27T06:48:54.158Z,80.52
2022-07-27T06:51:22.378Z,80.30
2022-07-27T06:53:53.193Z,79.81
2022-07-27T06:56:22.254Z,80.45
2022-07-27T06:58:51.203Z,80.72
2022-07-27T07:01:19.536Z,80.42
2022-07-27T07:03:48.165Z,80.64
2022-07-27T07:06:17.369Z,79.80
2022-07-27T07:08:45.605Z,80.18
2022-07-27T07:11:15.214Z,79.46
2022-07-27T07:13:45.150Z,79.29
2022-07-27T07:16:13.759Z,78.74
2022-07-27T07:18:42.441Z,78.21
2022-07-27T07:21:10.721Z,77.93
2022-07-27T07:23:38.945Z,77.81
2022-07-27T07:26:07.375Z,76.86
2022-07-27T07:28:37.146Z,76.42
2022-07-27T07:31:05.452Z,76.34
2022-07-27T07:33:33.781Z,75.89
2022-07-27T07:36:13.648Z,76.15
2022-07-27T07:38:43.040Z,75.50
2022-07-27T07:41:11.340Z,75.33
2022-07-27T07:43:42.169Z,75.75
2022-07-27T07:46:10.670Z,76.37
2022-07-27T07:48:39.777Z,75.07
2022-07-27T07:51:08.119Z,74.05
2022-07-27T07:53:41.149Z,73.97
2022-07-27T07:56:10.343Z,74.41
2022-07-27T07:58:39.892Z,73.85
2022-07-27T08:01:08.155Z,73.49
2022-07-27T08:03:36.344Z,73.75
2022-07-27T08:06:04.748Z,72.88
2022-07-27T08:08:33.070Z,73.27
2022-07-27T08:11:01.308Z,72.47
2022-07-27T08:13:29.632Z,72.73
2022-07-27T08:15:59.281Z,72.60
2022-07-27T08:18:27.460Z,71.88
2022-07-27T08:20:55.701Z,70.86
2022-07-27T08:23:24.120Z,70.38
2022-07-27T08:25:52.312Z,69.15
2022-07-27T08:28:20.743Z,69.14
2022-07-27T08:30:49.634Z,70.55
2022-07-27T08:33:19.683Z,70.19
2022-07-27T08:35:48.808Z,68.62
2022-07-27T08:38:17.045Z,67.75
2022-07-27T08:40:46.760Z,67.84
2022-07-27T08:43:24.309Z,68.42
2022-07-27T08:45:56.454Z,69.30
2022-07-27T08:48:27.825Z,68.51
2022-07-27T08:50:56.517Z,68.28
2022-07-27T08:53:25.332Z,66.78
2022-07-27T08:55:56.810Z,65.75
2022-07-27T08:58:24.981Z,67.18
2022-07-27T09:00:53.412Z,66.44
2022-07-27T09:03:25.074Z,65.92
2022-07-27T09:05:58.441Z,65.28
2022-07-27T09:08:31.406Z,65.09
2022-07-27T09:11:01.008Z,64.84
2022-07-27T09:13:31.781Z,65.28
2022-07-27T09:16:17.527Z,64.72
2022-07-27T09:18:50.162Z,64.72
2022-07-27T09:21:20.954Z,65.18
2022-07-27T09:23:52.715Z,63.32
2022-07-27T09:26:33.913Z,63.00
2022-07-27T09:29:06.627Z,63.99
2022-07-27T09:31:42.794Z,63.64
2022-07-27T09:34:14.655Z,62.15
2022-07-27T09:36:54.533Z,61.96
2022-07-27T09:39:25.223Z,61.18
2022-07-27T09:41:56.017Z,60.74
2022-07-27T09:44:43.587Z,61.35
2022-07-27T09:47:26.710Z,61.50
2022-07-27T09:49:58.885Z,60.30
2022-07-27T09:52:30.145Z,60.96
2022-07-27T09:55:05.679Z,60.16
2022-07-27T09:57:53.820Z,60.17
2022-07-27T10:00:23.201Z,59.80
2022-07-27T10:02:53.079Z,59.22
2022-07-27T10:05:24.049Z,60.04
2022-07-27T10:07:55.069Z,59.86
2022-07-27T10:10:24.493Z,60.80
2022-07-27T10:12:55.025Z,59.51
2022-07-27T10:15:24.156Z,61.02
2022-07-27T10:18:07.240Z,61.36
2022-07-27T10:20:39.815Z,61.60
2022-07-27T10:23:08.970Z,61.90
2022-07-27T10:25:38.255Z,61.60
2022-07-27T10:28:13.040Z,62.96
2022-07-27T10:30:41.585Z,61.57
2022-07-27T10:33:17.123Z,60.23
2022-07-27T10:35:46.727Z,58.91
2022-07-27T10:38:18.782Z,60.10
2022-07-27T10:40:47.327Z,60.24
2022-07-27T10:43:20.938Z,60.43
2022-07-27T10:46:01.934Z,59.86
2022-07-27T10:48:45.997Z,58.90
2022-07-27T10:51:35.160Z,58.10
2022-07-27T10:54:21.913Z,58.47
2022-07-27T10:56:52.538Z,59.15
2022-07-27T11:00:08.320Z,56.89
2022-07-27T11:02:40.902Z,57.76
2022-07-27T11:05:42.251Z,58.52
2022-07-27T11:10:49.938Z,59.05
2022-07-27T11:13:21.127Z,57.95
2022-07-27T11:15:59.706Z,56.52
2022-07-27T11:18:39.076Z,57.51
2022-07-27T11:21:20.346Z,58.52
2022-07-27T11:23:55.678Z,57.11
2022-07-27T11:26:26.729Z,56.15
2022-07-27T11:28:55.404Z,56.31
2022-07-27T11:34:17.381Z,54.67
2022-07-27T11:36:49.037Z,54.23
2022-07-27T11:39:54.402Z,54.16
2022-07-27T11:42:18.647Z,54.10
2022-07-27T11:44:49.773Z,54.51
2022-07-27T11:47:21.804Z,53.90
2022-07-27T11:49:50.292Z,53.83
2022-07-27T11:52:19.430Z,54.46
2022-07-27T11:54:53.430Z,55.25
2022-07-27T11:57:22.756Z,55.67
2022-07-27T11:59:51.004Z,55.37
2022-07-27T12:02:22.117Z,55.82
2022-07-27T12:04:52.561Z,56.31
2022-07-27T12:07:24.071Z,56.73
2022-07-27T12:09:56.720Z,56.60
2022-07-27T12:12:27.220Z,55.81
2022-07-27T12:14:57.439Z,52.66
2022-07-27T12:17:31.087Z,53.42
2022-07-27T12:20:03.469Z,52.22
2022-07-27T12:22:35.451Z,52.75
2022-07-27T12:25:16.188Z,47.94
2022-07-27T12:27:56.575Z,48.97
2022-07-27T12:30:33.169Z,48.09
2022-07-27T12:33:03.315Z,48.85
2022-07-27T12:35:37.283Z,50.57
2022-07-27T12:38:09.616Z,48.02
2022-07-27T12:40:48.495Z,48.82
2022-07-27T12:43:19.615Z,49.12
2022-07-27T12:45:50.329Z,51.38
2022-07-27T12:48:21.436Z,51.46
2022-07-27T12:50:59.106Z,51.59
2022-07-27T12:53:27.434Z,52.06
2022-07-27T12:56:00.142Z,51.49
2022-07-27T12:58:28.701Z,51.91
2022-07-27T13:00:57.226Z,52.03
2022-07-27T13:03:25.680Z,51.00
2022-07-27T13:05:54.356Z,50.92
2022-07-27T13:08:23.384Z,51.23
2022-07-27T13:10:52.918Z,50.65
2022-07-27T13:13:24.648Z,50.12
2022-07-27T13:15:53.127Z,50.04
2022-07-27T13:18:23.837Z,49.82
2022-07-27T13:20:52.680Z,49.00
2022-07-27T13:23:21.858Z,48.28
2022-07-27T13:25:50.422Z,49.20
2022-07-27T13:28:18.699Z,48.57
2022-07-27T13:30:51.256Z,48.49
2022-07-27T13:33:19.804Z,49.49
2022-07-27T13:35:58.938Z,47.46
2022-07-27T13:38:28.521Z,47.00
2022-07-27T13:40:56.943Z,47.10
2022-07-27T13:43:25.151Z,47.08
2022-07-27T13:45:54.758Z,46.85
2022-07-27T13:48:23.011Z,48.25
2022-07-27T13:50:51.284Z,48.38
2022-07-27T13:53:19.487Z,48.86
2022-07-27T13:55:47.997Z,49.45
2022-07-27T13:58:16.366Z,49.49
2022-07-27T14:00:44.724Z,48.27
2022-07-27T14:03:15.239Z,48.38
2022-07-27T14:05:49.552Z,49.23
2022-07-27T14:08:19.233Z,48.59
2022-07-27T14:10:47.814Z,49.25
2022-07-27T14:13:17.585Z,49.80
2022-07-27T14:15:52.857Z,49.85
2022-07-27T14:18:25.903Z,49.58
2022-07-27T14:20:54.888Z,49.90
2022-07-27T14:23:24.016Z,49.20
2022-07-27T14:25:53.296Z,49.35
2022-07-27T14:28:21.719Z,47.86
2022-07-27T14:30:50.485Z,49.19
2022-07-27T14:33:19.468Z,47.28
2022-07-27T14:35:49.907Z,48.00
2022-07-27T14:38:27.864Z,48.76
2022-07-27T14:41:00.699Z,48.66
2022-07-27T14:43:30.144Z,48.21
2022-07-27T14:45:59.094Z,47.63
2022-07-27T14:48:48.983Z,46.46
2022-07-27T14:51:17.962Z,47.07
2022-07-27T14:53:46.419Z,46.80
2022-07-27T14:56:15.038Z,46.10
2022-07-27T14:58:44.201Z,45.93
2022-07-27T15:01:12.928Z,45.56
2022-07-27T15:03:41.192Z,46.54
2022-07-27T15:06:09.635Z,46.58
2022-07-27T15:08:39.205Z,46.05
2022-07-27T15:11:07.431Z,46.02
2022-07-27T15:13:35.603Z,45.99
2022-07-27T15:16:04.061Z,45.98
2022-07-27T15:18:38.326Z,46.23
2022-07-27T15:21:12.885Z,46.98
2022-07-27T15:23:44.460Z,46.77
2022-07-27T15:26:13.574Z,46.53
2022-07-27T15:28:42.494Z,46.35
2022-07-27T15:31:11.508Z,46.73
2022-07-27T15:33:40.083Z,46.96
2022-07-27T15:36:08.418Z,47.41
2022-07-27T15:38:36.804Z,47.36
2022-07-27T15:41:06.384Z,46.56
2022-07-27T15:43:35.249Z,45.89
2022-07-27T15:46:03.738Z,46.74
2022-07-27T15:48:32.253Z,46.98
2022-07-27T15:51:00.527Z,47.27
2022-07-27T15:53:30.026Z,46.85
2022-07-27T15:55:58.246Z,46.86
2022-07-27T15:58:27.858Z,46.91
2022-07-27T16:00:58.047Z,47.45
2022-07-27T16:03:27.197Z,47.24
2022-07-27T16:06:01.002Z,47.09
2022-07-27T16:08:31.049Z,47.42
2022-07-27T16:10:59.859Z,47.52
2022-07-27T16:13:29.764Z,47.93
2022-07-27T16:16:15.054Z,48.20
2022-07-27T16:18:43.398Z,47.51
2022-07-27T16:21:11.951Z,48.33
2022-07-27T16:23:40.339Z,48.21
2022-07-27T16:26:08.840Z,48.21
2022-07-27T16:28:41.027Z,48.03
2022-07-27T16:31:12.213Z,48.52
2022-07-27T16:33:45.069Z,48.57
2022-07-27T16:36:14.117Z,48.83
2022-07-27T16:38:50.401Z,48.92
2022-07-27T16:41:20.376Z,48.43
2022-07-27T16:43:50.618Z,49.14
2022-07-27T16:46:19.411Z,48.63
2022-07-27T16:48:47.968Z,49.27
2022-07-27T16:51:17.776Z,49.13
2022-07-27T16:53:48.924Z,48.99
2022-07-27T16:56:18.045Z,49.65
2022-07-27T16:58:46.317Z,48.97
2022-07-27T17:01:26.062Z,49.29
2022-07-27T17:03:56.271Z,48.95
2022-07-27T17:06:25.923Z,48.83
2022-07-27T17:08:54.830Z,48.19
2022-07-27T17:11:23.508Z,48.69
2022-07-27T17:13:57.651Z,48.83
2022-07-27T17:16:29.702Z,48.72
2022-07-27T17:18:57.977Z,48.20
2022-07-27T17:21:26.650Z,48.11
2022-07-27T17:23:55.023Z,48.16
2022-07-27T17:26:25.159Z,47.54
2022-07-27T17:28:54.216Z,47.89
2022-07-27T17:31:22.750Z,48.30
2022-07-27T17:33:52.736Z,48.39
2022-07-27T17:36:21.282Z,48.35
2022-07-27T17:38:51.144Z,48.03
2022-07-27T17:41:24.669Z,48.49
2022-07-27T17:43:54.329Z,48.03
2022-07-27T17:46:24.742Z,48.25
2022-07-27T17:48:55.112Z,48.03
2022-07-27T17:51:25.235Z,48.14
2022-07-27T17:53:53.713Z,48.49
2022-07-27T17:56:22.313Z,48.62
2022-07-27T17:58:51.335Z,48.63
2022-07-27T18:01:47.097Z,48.83
2022-07-27T18:04:17.472Z,49.50
2022-07-27T18:06:47.499Z,48.73
2022-07-27T18:09:17.213Z,48.70
2022-07-27T18:11:46.115Z,48.18
2022-07-27T18:14:14.998Z,48.93
2022-07-27T18:16:43.367Z,48.30
2022-07-27T18:19:11.848Z,48.72
2022-07-27T18:21:41.830Z,47.96
2022-07-27T18:24:10.633Z,48.74
2022-07-27T18:26:39.051Z,47.57
2022-07-27T18:29:07.405Z,48.03
2022-07-27T18:31:35.835Z,48.42
2022-07-27T18:34:06.864Z,48.58
2022-07-27T18:36:38.951Z,48.65
2022-07-27T18:39:08.958Z,49.38
2022-07-27T18:41:40.508Z,49.51
2022-07-27T18:44:08.829Z,50.26
2022-07-27T18:46:37.256Z,50.28
2022-07-27T18:49:05.580Z,50.88
2022-07-27T18:51:36.059Z,50.83
2022-07-27T18:54:05.614Z,51.03
2022-07-27T18:56:35.345Z,51.88
2022-07-27T18:59:03.486Z,51.53
2022-07-27T19:01:31.764Z,51.53
2022-07-27T19:04:00.148Z,51.57
2022-07-27T19:06:30.297Z,51.71
2022-07-27T19:08:58.802Z,52.20
2022-07-27T19:11:27.102Z,52.72
2022-07-27T19:13:57.924Z,53.30
2022-07-27T19:16:26.608Z,53.15
2022-07-27T19:18:54.791Z,53.08
2022-07-27T19:21:23.167Z,53.31
2022-07-27T19:23:51.374Z,52.88
2022-07-27T19:26:19.567Z,53.21
2022-07-27T19:28:47.906Z,53.00
2022-07-27T19:31:22.521Z,53.32
2022-07-27T19:33:52.424Z,53.26
2022-07-27T19:36:23.117Z,54.02
2022-07-27T19:38:51.649Z,53.67
2022-07-27T19:41:19.945Z,53.96
2022-07-27T19:43:48.624Z,54.46
2022-07-27T19:46:18.279Z,54.64
2022-07-27T19:48:46.586Z,54.83
2022-07-27T19:51:16.077Z,54.42
2022-07-27T19:53:44.652Z,54.44
2022-07-27T19:56:12.900Z,54.69
2022-07-27T19:58:41.318Z,55.03
2022-07-27T20:01:11.595Z,55.56
2022-07-27T20:03:52.515Z,55.91
2022-07-27T20:06:26.866Z,55.64
2022-07-27T20:08:59.453Z,55.83
2022-07-27T20:11:29.976Z,55.76
2022-07-27T20:13:59.642Z,57.00
2022-07-27T20:16:29.747Z,57.06
2022-07-27T20:19:00.176Z,57.27
2022-07-27T20:21:28.372Z,57.28
2022-07-27T20:23:57.802Z,57.77
2022-07-27T20:26:26.399Z,57.83
2022-07-27T20:28:54.638Z,57.78
2022-07-27T20:31:23.038Z,58.42
2022-07-27T20:33:51.297Z,58.11
2022-07-27T20:36:20.932Z,58.27
2022-07-27T20:38:49.103Z,57.93
2022-07-27T20:41:17.656Z,58.39
2022-07-27T20:43:45.915Z,57.93
2022-07-27T20:46:15.677Z,57.75
2022-07-27T20:48:44.250Z,58.71
2022-07-27T20:51:12.610Z,58.66
2022-07-27T20:53:42.119Z,58.23
2022-07-27T20:56:10.393Z,58.89
2022-07-27T20:58:38.645Z,58.70
2022-07-27T21:01:07.223Z,59.91
2022-07-27T21:03:35.534Z,59.01
2022-07-27T21:06:04.664Z,59.71
2022-07-27T21:08:33.137Z,59.75
2022-07-27T21:11:02.727Z,59.95
2022-07-27T21:13:30.988Z,59.90
2022-07-27T21:15:59.231Z,59.61
2022-07-27T21:18:27.410Z,59.85
2022-07-27T21:20:55.723Z,60.07
2022-07-27T21:23:41.818Z,60.06
2022-07-27T21:26:11.435Z,59.98
2022-07-27T21:28:43.674Z,60.63
2022-07-27T21:31:12.229Z,60.26
2022-07-27T21:33:40.455Z,60.03
2022-07-27T21:36:09.090Z,59.99
2022-07-27T21:38:37.305Z,60.52
2022-07-27T21:41:05.827Z,60.23
2022-07-27T21:43:35.635Z,59.96
2022-07-27T21:46:03.930Z,59.92
2022-07-27T21:48:32.283Z,60.15
2022-07-27T21:51:00.629Z,59.83
2022-07-27T21:53:28.823Z,59.97
2022-07-27T21:55:57.060Z,59.93
2022-07-27T21:58:26.926Z,59.69
2022-07-27T22:00:56.540Z,59.89
2022-07-27T22:03:25.204Z,59.75
2022-07-27T22:05:54.320Z,60.05
2022-07-27T22:08:22.726Z,59.99
2022-07-27T22:10:50.934Z,60.40
2022-07-27T22:13:19.174Z,60.50
2022-07-27T22:15:49.422Z,60.17
2022-07-27T22:18:19.503Z,60.63
2022-07-27T22:20:47.898Z,60.34
2022-07-27T22:23:16.192Z,60.78
2022-07-27T22:25:44.702Z,60.14
2022-07-27T22:28:12.939Z,60.39
2022-07-27T22:30:41.168Z,60.23
2022-07-27T22:33:09.378Z,59.90
2022-07-27T22:35:38.967Z,59.99
2022-07-27T22:38:07.168Z,59.80
2022-07-27T22:40:35.438Z,60.20
2022-07-27T22:43:03.700Z,60.93
2022-07-27T22:45:31.975Z,61.10
2022-07-27T22:48:00.670Z,61.65
2022-07-27T22:50:28.917Z,61.32
2022-07-27T22:52:58.521Z,61.43
2022-07-27T22:55:27.185Z,61.45
2022-07-27T22:57:55.433Z,62.37
2022-07-27T23:00:23.821Z,61.88
2022-07-27T23:02:52.052Z,61.64
2022-07-27T23:05:20.390Z,61.28
2022-07-27T23:07:48.961Z,60.96
2022-07-27T23:10:36.326Z,61.00
2022-07-27T23:13:04.528Z,61.82
2022-07-27T23:15:32.818Z,62.81
2022-07-27T23:18:01.071Z,63.49
2022-07-27T23:20:29.260Z,63.02
2022-07-27T23:22:57.486Z,64.15
2022-07-27T23:25:36.011Z,64.33
2022-07-27T23:28:05.284Z,64.57
2022-07-27T23:30:33.685Z,63.99
2022-07-27T23:33:01.861Z,63.86
2022-07-27T23:35:30.359Z,63.76
2022-07-27T23:37:58.576Z,64.18
2022-07-27T23:40:28.432Z,64.46
2022-07-27T23:42:56.650Z,63.89
2022-07-27T23:45:24.918Z,64.02
2022-07-27T23:47:53.162Z,63.40
2022-07-27T23:50:21.365Z,64.11
2022-07-27T23:52:49.547Z,64.05
2022-07-27T23:55:17.872Z,63.88
2022-07-27T23:57:47.501Z,63.76
